CYFC Airport Information

Runway Information
Runway 09 Length 8005 ft width 200 ft
Elevation 64 ft Threshold ft Heading 71
Runway 27 Length 8005 ft Width 200 ft
Elevation 57 ft Threshold ft Heading 251
Runway 15 Length 6000 ft width 200 ft
Elevation 53 ft Threshold ft Heading 131
Runway 33 Length 6000 ft Width 200 ft
Elevation 57 ft Threshold ft Heading 311
Airport Frequencies
Type A/G Name MF Frequency 119 MHZ
Type CNTR Name MONCTON CN Frequency 124.3 MHZ
Type RDO Name RDO Frequency 119 MHZ
Airport Navaids
Type NDB Name Fredericton Frequency 326 KHZ
Type DME Name Fredericton Frequency 111300 KHZ
Type VORTAC Name Fredericton Frequency 113000 KHZ
Airport Weather Information & NOTAM
ADDS - METARS form results

(1440 UTC 14 August 2022)
Data provider http://aviationweather.gov/metar/data/
 
METAR text: CYFC 141430Z AUTO 33006KT 9SM BKN096 OVC110 17/15 A2996 RMK SLP147 DENSITY ALT 300FT
Conditions at: CYFC (FREDERICTON AIRP, NB, CA) observed 1430 UTC 14 August 2022
Temperature: 17.0°C (63°F)
Dewpoint: 15.0°C (59°F) [RH = 88%]
Pressure (altimeter): 29.96 inches Hg (1014.6 mb)
[Sea-level pressure: 1014.7 mb]
Winds: from the NNW (330 degrees) at 7 MPH (6 knots; 3.1 m/s)
Visibility: 9 miles (14 km)
Ceiling: 9600 feet AGL
Clouds: broken clouds at 9600 feet AGL
overcast cloud deck at 11000 feet AGL
Weather: no significant weather observed at this time

METAR text: CYFC 141412Z AUTO 33008KT 9SM -RA FEW043 OVC087 16/15 A2996 RMK SLP148 DENSITY ALT 200FT
Conditions at: CYFC (FREDERICTON AIRP, NB, CA) observed 1412 UTC 14 August 2022
Temperature: 16.0°C (61°F)
Dewpoint: 15.0°C (59°F) [RH = 94%]
Pressure (altimeter): 29.96 inches Hg (1014.6 mb)
[Sea-level pressure: 1014.8 mb]
Winds: from the NNW (330 degrees) at 9 MPH (8 knots; 4.1 m/s)
Visibility: 9 miles (14 km)
Ceiling: 8700 feet AGL
Clouds: few clouds at 4300 feet AGL
overcast cloud deck at 8700 feet AGL
Weather: -RA  (light rain)

METAR text: CYFC 141408Z AUTO 34009KT 9SM FEW043 OVC081 16/15 A2996 RMK SLP148 DENSITY ALT 200FT
Conditions at: CYFC (FREDERICTON AIRP, NB, CA) observed 1408 UTC 14 August 2022
Temperature: 16.0°C (61°F)
Dewpoint: 15.0°C (59°F) [RH = 94%]
Pressure (altimeter): 29.96 inches Hg (1014.6 mb)
[Sea-level pressure: 1014.8 mb]
Winds: from the NNW (340 degrees) at 10 MPH (9 knots; 4.6 m/s)
Visibility: 9 miles (14 km)
Ceiling: 8100 feet AGL
Clouds: few clouds at 4300 feet AGL
overcast cloud deck at 8100 feet AGL
Weather: no significant weather observed at this time

METAR text: CYFC 141400Z AUTO 35008KT 9SM -RA SCT043 SCT050 OVC081 16/15 A2997 RMK PCPN 0.8MM PAST HR SLP150 DENSITY ALT 200FT
Conditions at: CYFC (FREDERICTON AIRP, NB, CA) observed 1400 UTC 14 August 2022
Temperature: 16.0°C (61°F)
Dewpoint: 15.0°C (59°F) [RH = 94%]
Pressure (altimeter): 29.97 inches Hg (1015.0 mb)
[Sea-level pressure: 1015.0 mb]
Winds: from the N (350 degrees) at 9 MPH (8 knots; 4.1 m/s)
Visibility: 9 miles (14 km)
Ceiling: 8100 feet AGL
Clouds: scattered clouds at 4300 feet AGL
scattered clouds at 5000 feet AGL
overcast cloud deck at 8100 feet AGL
Weather: -RA  (light rain)

Forecast for: CYFC (FREDERICTON AIRP, NB, CA)
Text: TAF CYFC 141140Z 1412/1424 35008KT P6SM FEW010 BKN040
Forecast period: 1200 to 1600 UTC 14 August 2022
Forecast type: FROM: standard forecast or significant change
Winds: from the N (350 degrees) at 9 MPH (8 knots; 4.1 m/s)
Visibility: 6 or more miles (10+ km)
Ceiling: 4000 feet AGL
Clouds: few clouds at 1000 feet AGL
broken clouds at 4000 feet AGL
Weather: no significant weather forecast for this period
Text: TEMPO 1412/1416 5SM -SHRA BR BKN008 OVC030
Forecast period: 1200 to 1600 UTC 14 August 2022
Forecast type: TEMPORARY: The following changes expected for less than half the time period
Visibility: 5 miles (8 km)
Ceiling: 800 feet AGL
Clouds: broken clouds at 800 feet AGL
overcast cloud deck at 3000 feet AGL
Weather: -SHRA BR  (light rain showers, mist)
Text: PROB30 1412/1416 3SM SHRA BR BKN005 OVC030
Forecast period: 1200 to 1600 UTC 14 August 2022
Forecast type: PROBABLE: 30 percent likelihood of the following during this time
Visibility: 3 miles (5 km)
Ceiling: 500 feet AGL
Clouds: broken clouds at 500 feet AGL
overcast cloud deck at 3000 feet AGL
Weather: SHRA BR  (rain showers, mist)
Text: FM141600 36008G18KT P6SM -SHRA FEW015 BKN030 RMK FCST BASED ON AUTO OBS. NXT FCST BY 141800Z
Forecast period: 1600 UTC 14 August 2022 to 0000 UTC 15 August 2022
Forecast type: FROM: standard forecast or significant change
Winds: from the N (360 degrees) at 9 MPH (8 knots; 4.1 m/s)
gusting to 21 MPH (18 knots; 9.3 m/s)
Visibility: 6 or more miles (10+ km)
Ceiling: 3000 feet AGL
Clouds: few clouds at 1500 feet AGL
broken clouds at 3000 feet AGL
Weather: -SHRA  (light rain showers)